sensor_id;sensor_type;location;lat;lon;timestamp;temperature;humidity
573;DHT22;271;51.114;13.780;2023-04-15T00:00:25;7.10;42.30
573;DHT22;271;51.114;13.780;2023-04-15T00:03:14;7.10;40.20
573;DHT22;271;51.114;13.780;2023-04-15T00:06:03;7.10;41.70
573;DHT22;271;51.114;13.780;2023-04-15T00:08:50;7.10;42.60
573;DHT22;271;51.114;13.780;2023-04-15T00:11:38;7.10;43.80
573;DHT22;271;51.114;13.780;2023-04-15T00:14:26;7.00;40.70
573;DHT22;271;51.114;13.780;2023-04-15T00:17:14;7.10;42.50
573;DHT22;271;51.114;13.780;2023-04-15T00:20:02;7.10;43.70
573;DHT22;271;51.114;13.780;2023-04-15T00:22:53;7.00;44.40
573;DHT22;271;51.114;13.780;2023-04-15T00:25:40;7.10;45.80
573;DHT22;271;51.114;13.780;2023-04-15T00:28:28;7.10;46.30
573;DHT22;271;51.114;13.780;2023-04-15T00:31:16;7.10;44.80
573;DHT22;271;51.114;13.780;2023-04-15T00:34:04;7.10;45.30
573;DHT22;271;51.114;13.780;2023-04-15T00:36:51;7.20;47.80
573;DHT22;271;51.114;13.780;2023-04-15T00:39:40;7.10;45.90
573;DHT22;271;51.114;13.780;2023-04-15T00:42:28;7.20;44.80
573;DHT22;271;51.114;13.780;2023-04-15T00:45:16;7.20;42.10
573;DHT22;271;51.114;13.780;2023-04-15T00:48:04;7.10;40.10
573;DHT22;271;51.114;13.780;2023-04-15T00:50:52;7.10;39.90
573;DHT22;271;51.114;13.780;2023-04-15T00:53:40;7.10;38.50
573;DHT22;271;51.114;13.780;2023-04-15T00:56:29;7.10;40.00
573;DHT22;271;51.114;13.780;2023-04-15T00:59:18;7.10;41.50
573;DHT22;271;51.114;13.780;2023-04-15T01:02:06;7.10;40.00
573;DHT22;271;51.114;13.780;2023-04-15T01:04:55;7.20;39.40
573;DHT22;271;51.114;13.780;2023-04-15T01:07:43;7.10;41.80
573;DHT22;271;51.114;13.780;2023-04-15T01:10:31;7.10;42.80
573;DHT22;271;51.114;13.780;2023-04-15T01:13:22;7.10;42.90
573;DHT22;271;51.114;13.780;2023-04-15T01:16:10;7.20;43.60
573;DHT22;271;51.114;13.780;2023-04-15T01:18:58;7.20;41.80
573;DHT22;271;51.114;13.780;2023-04-15T01:21:46;7.10;37.80
573;DHT22;271;51.114;13.780;2023-04-15T01:24:35;7.10;37.60
573;DHT22;271;51.114;13.780;2023-04-15T01:27:25;7.20;40.10
573;DHT22;271;51.114;13.780;2023-04-15T01:30:12;7.20;40.40
573;DHT22;271;51.114;13.780;2023-04-15T01:33:00;7.20;41.50
573;DHT22;271;51.114;13.780;2023-04-15T01:35:49;7.20;41.30
573;DHT22;271;51.114;13.780;2023-04-15T01:38:37;7.10;37.20
573;DHT22;271;51.114;13.780;2023-04-15T01:41:25;7.20;37.90
573;DHT22;271;51.114;13.780;2023-04-15T01:44:14;7.10;39.20
573;DHT22;271;51.114;13.780;2023-04-15T01:47:02;7.20;40.90
573;DHT22;271;51.114;13.780;2023-04-15T01:49:50;7.20;42.50
573;DHT22;271;51.114;13.780;2023-04-15T01:52:38;7.10;42.40
573;DHT22;271;51.114;13.780;2023-04-15T01:55:26;7.10;41.50
573;DHT22;271;51.114;13.780;2023-04-15T01:58:14;7.20;45.50
573;DHT22;271;51.114;13.780;2023-04-15T02:01:03;7.20;42.90
573;DHT22;271;51.114;13.780;2023-04-15T02:03:50;7.20;44.60
573;DHT22;271;51.114;13.780;2023-04-15T02:06:38;7.20;44.00
573;DHT22;271;51.114;13.780;2023-04-15T02:09:26;7.20;42.50
573;DHT22;271;51.114;13.780;2023-04-15T02:12:14;7.20;41.80
573;DHT22;271;51.114;13.780;2023-04-15T02:15:01;7.20;42.40
573;DHT22;271;51.114;13.780;2023-04-15T02:17:50;7.20;43.20
573;DHT22;271;51.114;13.780;2023-04-15T02:20:40;7.20;43.50
573;DHT22;271;51.114;13.780;2023-04-15T02:23:28;7.20;44.20
573;DHT22;271;51.114;13.780;2023-04-15T02:26:16;7.10;42.50
573;DHT22;271;51.114;13.780;2023-04-15T02:29:04;7.10;44.80
573;DHT22;271;51.114;13.780;2023-04-15T02:31:52;7.10;44.20
573;DHT22;271;51.114;13.780;2023-04-15T02:34:41;7.30;45.00
573;DHT22;271;51.114;13.780;2023-04-15T02:37:29;7.20;45.40
573;DHT22;271;51.114;13.780;2023-04-15T02:40:17;7.10;44.50
573;DHT22;271;51.114;13.780;2023-04-15T02:43:05;7.10;44.60
573;DHT22;271;51.114;13.780;2023-04-15T02:45:53;7.20;46.80
573;DHT22;271;51.114;13.780;2023-04-15T02:48:40;7.20;48.50
573;DHT22;271;51.114;13.780;2023-04-15T02:51:29;7.20;48.20
573;DHT22;271;51.114;13.780;2023-04-15T02:54:18;7.20;48.60
573;DHT22;271;51.114;13.780;2023-04-15T02:57:05;7.20;47.90
573;DHT22;271;51.114;13.780;2023-04-15T02:59:53;7.20;47.90
573;DHT22;271;51.114;13.780;2023-04-15T03:02:41;7.20;48.40
573;DHT22;271;51.114;13.780;2023-04-15T03:05:29;7.30;50.40
573;DHT22;271;51.114;13.780;2023-04-15T03:08:18;7.30;47.00
573;DHT22;271;51.114;13.780;2023-04-15T03:11:07;7.20;46.80
573;DHT22;271;51.114;13.780;2023-04-15T03:13:54;7.30;46.90
573;DHT22;271;51.114;13.780;2023-04-15T03:16:42;7.30;45.70
573;DHT22;271;51.114;13.780;2023-04-15T03:19:30;7.30;46.50
573;DHT22;271;51.114;13.780;2023-04-15T03:22:17;7.40;46.80
573;DHT22;271;51.114;13.780;2023-04-15T03:25:07;7.30;44.40
573;DHT22;271;51.114;13.780;2023-04-15T03:27:55;7.30;43.10
573;DHT22;271;51.114;13.780;2023-04-15T03:30:43;7.30;46.30
573;DHT22;271;51.114;13.780;2023-04-15T03:33:31;7.30;44.50
573;DHT22;271;51.114;13.780;2023-04-15T03:36:18;7.50;44.30
573;DHT22;271;51.114;13.780;2023-04-15T03:39:06;7.30;46.70
573;DHT22;271;51.114;13.780;2023-04-15T03:41:55;7.40;42.90
573;DHT22;271;51.114;13.780;2023-04-15T03:44:43;7.40;44.40
573;DHT22;271;51.114;13.780;2023-04-15T03:47:31;7.40;42.60
573;DHT22;271;51.114;13.780;2023-04-15T03:50:18;7.30;40.60
573;DHT22;271;51.114;13.780;2023-04-15T03:53:06;7.30;40.20
573;DHT22;271;51.114;13.780;2023-04-15T03:55:54;7.40;42.50
573;DHT22;271;51.114;13.780;2023-04-15T03:58:43;7.30;42.50
573;DHT22;271;51.114;13.780;2023-04-15T04:01:31;7.30;42.80
573;DHT22;271;51.114;13.780;2023-04-15T04:04:19;7.30;43.70
573;DHT22;271;51.114;13.780;2023-04-15T04:07:06;7.30;42.20
573;DHT22;271;51.114;13.780;2023-04-15T04:09:55;7.20;44.60
573;DHT22;271;51.114;13.780;2023-04-15T04:12:42;7.30;45.30
573;DHT22;271;51.114;13.780;2023-04-15T04:15:31;7.30;46.90
573;DHT22;271;51.114;13.780;2023-04-15T04:18:19;7.30;47.00
573;DHT22;271;51.114;13.780;2023-04-15T04:21:07;7.30;49.70
573;DHT22;271;51.114;13.780;2023-04-15T04:23:54;7.30;49.30
573;DHT22;271;51.114;13.780;2023-04-15T04:26:44;7.30;49.00
573;DHT22;271;51.114;13.780;2023-04-15T04:29:31;7.30;49.90
573;DHT22;271;51.114;13.780;2023-04-15T04:32:20;7.40;50.00
573;DHT22;271;51.114;13.780;2023-04-15T04:35:08;7.30;48.30
573;DHT22;271;51.114;13.780;2023-04-15T04:37:56;7.30;47.80
573;DHT22;271;51.114;13.780;2023-04-15T04:40:44;7.30;50.40
573;DHT22;271;51.114;13.780;2023-04-15T04:43:31;7.40;52.50
573;DHT22;271;51.114;13.780;2023-04-15T04:46:19;7.50;51.60
573;DHT22;271;51.114;13.780;2023-04-15T04:49:08;7.50;50.60
573;DHT22;271;51.114;13.780;2023-04-15T04:51:56;7.40;46.40
573;DHT22;271;51.114;13.780;2023-04-15T04:54:44;7.40;47.60
573;DHT22;271;51.114;13.780;2023-04-15T04:57:32;7.40;48.50
573;DHT22;271;51.114;13.780;2023-04-15T05:00:21;7.50;49.50
573;DHT22;271;51.114;13.780;2023-04-15T05:03:08;7.50;47.20
573;DHT22;271;51.114;13.780;2023-04-15T05:05:58;7.50;47.10
573;DHT22;271;51.114;13.780;2023-04-15T05:08:46;7.50;47.60
573;DHT22;271;51.114;13.780;2023-04-15T05:11:33;7.50;47.70
573;DHT22;271;51.114;13.780;2023-04-15T05:14:21;7.50;45.30
573;DHT22;271;51.114;13.780;2023-04-15T05:17:09;7.50;44.70
573;DHT22;271;51.114;13.780;2023-04-15T05:19:56;7.50;46.90
573;DHT22;271;51.114;13.780;2023-04-15T05:22:46;7.50;49.10
573;DHT22;271;51.114;13.780;2023-04-15T05:25:33;7.50;49.10
573;DHT22;271;51.114;13.780;2023-04-15T05:28:21;7.50;49.20
573;DHT22;271;51.114;13.780;2023-04-15T05:31:09;7.50;49.60
573;DHT22;271;51.114;13.780;2023-04-15T05:33:57;7.50;51.30
573;DHT22;271;51.114;13.780;2023-04-15T05:36:44;7.50;50.20
573;DHT22;271;51.114;13.780;2023-04-15T05:39:33;7.30;48.20
573;DHT22;271;51.114;13.780;2023-04-15T05:42:21;7.30;51.40
573;DHT22;271;51.114;13.780;2023-04-15T05:45:09;7.30;52.20
573;DHT22;271;51.114;13.780;2023-04-15T05:47:57;7.30;53.50
573;DHT22;271;51.114;13.780;2023-04-15T05:50:45;7.20;55.20
573;DHT22;271;51.114;13.780;2023-04-15T05:53:33;7.20;57.10
573;DHT22;271;51.114;13.780;2023-04-15T05:56:22;7.20;58.30
573;DHT22;271;51.114;13.780;2023-04-15T05:59:12;7.20;59.50
573;DHT22;271;51.114;13.780;2023-04-15T06:01:59;7.10;59.50
573;DHT22;271;51.114;13.780;2023-04-15T06:04:47;7.10;60.70
573;DHT22;271;51.114;13.780;2023-04-15T06:07:35;7.20;62.10
573;DHT22;271;51.114;13.780;2023-04-15T06:10:23;7.20;61.30
573;DHT22;271;51.114;13.780;2023-04-15T06:13:15;7.20;62.00
573;DHT22;271;51.114;13.780;2023-04-15T06:16:03;7.30;64.50
573;DHT22;271;51.114;13.780;2023-04-15T06:18:51;7.30;64.30
573;DHT22;271;51.114;13.780;2023-04-15T06:21:39;7.20;62.90
573;DHT22;271;51.114;13.780;2023-04-15T06:24:30;7.20;62.10
573;DHT22;271;51.114;13.780;2023-04-15T06:27:18;7.20;62.10
573;DHT22;271;51.114;13.780;2023-04-15T06:30:08;7.30;65.40
573;DHT22;271;51.114;13.780;2023-04-15T06:32:56;7.40;67.20
573;DHT22;271;51.114;13.780;2023-04-15T06:35:44;7.40;64.80
573;DHT22;271;51.114;13.780;2023-04-15T06:38:32;7.30;63.70
573;DHT22;271;51.114;13.780;2023-04-15T06:41:23;7.40;64.00
573;DHT22;271;51.114;13.780;2023-04-15T06:44:12;7.40;64.80
573;DHT22;271;51.114;13.780;2023-04-15T06:47:02;7.40;64.50
573;DHT22;271;51.114;13.780;2023-04-15T06:49:51;7.40;63.90
573;DHT22;271;51.114;13.780;2023-04-15T06:52:40;7.40;62.30
573;DHT22;271;51.114;13.780;2023-04-15T06:55:29;7.40;61.70
573;DHT22;271;51.114;13.780;2023-04-15T06:58:19;7.30;60.00
573;DHT22;271;51.114;13.780;2023-04-15T07:01:08;7.40;61.20
573;DHT22;271;51.114;13.780;2023-04-15T07:03:57;7.40;60.60
573;DHT22;271;51.114;13.780;2023-04-15T07:06:46;7.40;61.30
573;DHT22;271;51.114;13.780;2023-04-15T07:09:34;7.40;60.80
573;DHT22;271;51.114;13.780;2023-04-15T07:12:22;7.40;62.00
573;DHT22;271;51.114;13.780;2023-04-15T07:15:11;7.50;62.80
573;DHT22;271;51.114;13.780;2023-04-15T07:17:59;7.50;60.30
573;DHT22;271;51.114;13.780;2023-04-15T07:20:51;7.50;59.40
573;DHT22;271;51.114;13.780;2023-04-15T07:23:40;7.50;59.60
573;DHT22;271;51.114;13.780;2023-04-15T07:26:28;7.60;59.40
573;DHT22;271;51.114;13.780;2023-04-15T07:29:16;7.60;60.70
573;DHT22;271;51.114;13.780;2023-04-15T07:32:04;7.60;56.00
573;DHT22;271;51.114;13.780;2023-04-15T07:34:52;7.60;51.80
573;DHT22;271;51.114;13.780;2023-04-15T07:37:44;7.50;50.80
573;DHT22;271;51.114;13.780;2023-04-15T07:40:32;7.40;48.10
573;DHT22;271;51.114;13.780;2023-04-15T07:43:20;7.40;47.70
573;DHT22;271;51.114;13.780;2023-04-15T07:46:07;7.30;48.10
573;DHT22;271;51.114;13.780;2023-04-15T07:48:57;7.40;50.70
573;DHT22;271;51.114;13.780;2023-04-15T07:51:45;7.40;50.00
573;DHT22;271;51.114;13.780;2023-04-15T07:54:37;7.40;47.80
573;DHT22;271;51.114;13.780;2023-04-15T07:57:25;7.50;51.10
573;DHT22;271;51.114;13.780;2023-04-15T08:00:13;7.50;49.70
573;DHT22;271;51.114;13.780;2023-04-15T08:03:01;7.60;50.00
573;DHT22;271;51.114;13.780;2023-04-15T08:05:51;7.80;50.50
573;DHT22;271;51.114;13.780;2023-04-15T08:08:39;7.80;46.50
573;DHT22;271;51.114;13.780;2023-04-15T08:11:31;7.80;42.60
573;DHT22;271;51.114;13.780;2023-04-15T08:14:19;7.90;42.20
573;DHT22;271;51.114;13.780;2023-04-15T08:17:07;8.10;39.30
573;DHT22;271;51.114;13.780;2023-04-15T08:19:55;8.10;40.00
573;DHT22;271;51.114;13.780;2023-04-15T08:22:45;8.30;36.10
573;DHT22;271;51.114;13.780;2023-04-15T08:25:37;8.30;33.00
573;DHT22;271;51.114;13.780;2023-04-15T08:28:26;8.20;20.20
573;DHT22;271;51.114;13.780;2023-04-15T08:31:14;8.10;17.20
573;DHT22;271;51.114;13.780;2023-04-15T08:34:02;8.20;18.40
573;DHT22;271;51.114;13.780;2023-04-15T08:36:50;8.30;18.50
573;DHT22;271;51.114;13.780;2023-04-15T08:39:40;8.40;21.00
573;DHT22;271;51.114;13.780;2023-04-15T08:42:30;8.30;16.20
573;DHT22;271;51.114;13.780;2023-04-15T08:45:22;8.40;15.00
573;DHT22;271;51.114;13.780;2023-04-15T08:48:12;8.60;14.40
573;DHT22;271;51.114;13.780;2023-04-15T08:51:02;8.70;12.80
573;DHT22;271;51.114;13.780;2023-04-15T08:53:50;8.60;1.00
573;DHT22;271;51.114;13.780;2023-04-15T08:56:38;8.60;1.00
573;DHT22;271;51.114;13.780;2023-04-15T08:59:27;8.60;1.00
573;DHT22;271;51.114;13.780;2023-04-15T09:02:18;8.50;1.00
573;DHT22;271;51.114;13.780;2023-04-15T09:05:07;8.50;1.00
573;DHT22;271;51.114;13.780;2023-04-15T09:07:55;8.50;1.00
573;DHT22;271;51.114;13.780;2023-04-15T09:10:43;8.60;1.00
573;DHT22;271;51.114;13.780;2023-04-15T09:13:38;8.50;1.00
573;DHT22;271;51.114;13.780;2023-04-15T09:16:26;8.40;1.00
573;DHT22;271;51.114;13.780;2023-04-15T09:19:22;8.40;1.00
573;DHT22;271;51.114;13.780;2023-04-15T09:22:11;8.30;1.00
573;DHT22;271;51.114;13.780;2023-04-15T09:24:59;8.30;1.00
573;DHT22;271;51.114;13.780;2023-04-15T09:27:58;8.30;1.00
573;DHT22;271;51.114;13.780;2023-04-15T09:30:46;8.40;1.00
573;DHT22;271;51.114;13.780;2023-04-15T09:33:54;8.30;1.00
573;DHT22;271;51.114;13.780;2023-04-15T09:37:00;8.40;1.00
573;DHT22;271;51.114;13.780;2023-04-15T09:39:57;8.30;1.00
573;DHT22;271;51.114;13.780;2023-04-15T09:42:55;8.20;1.00
573;DHT22;271;51.114;13.780;2023-04-15T09:45:47;8.20;1.00
573;DHT22;271;51.114;13.780;2023-04-15T09:48:35;8.20;1.00
573;DHT22;271;51.114;13.780;2023-04-15T09:51:33;8.10;1.00
573;DHT22;271;51.114;13.780;2023-04-15T09:54:23;8.10;1.00
573;DHT22;271;51.114;13.780;2023-04-15T09:57:11;8.10;1.00
573;DHT22;271;51.114;13.780;2023-04-15T09:59:59;8.00;1.00
573;DHT22;271;51.114;13.780;2023-04-15T10:02:47;8.10;1.00
573;DHT22;271;51.114;13.780;2023-04-15T10:05:36;8.00;1.00
573;DHT22;271;51.114;13.780;2023-04-15T10:08:27;8.00;1.00
573;DHT22;271;51.114;13.780;2023-04-15T10:11:16;8.00;1.00
573;DHT22;271;51.114;13.780;2023-04-15T10:14:08;8.00;1.00
573;DHT22;271;51.114;13.780;2023-04-15T10:17:07;7.90;1.00
573;DHT22;271;51.114;13.780;2023-04-15T10:20:03;8.00;1.00
573;DHT22;271;51.114;13.780;2023-04-15T10:22:53;8.10;1.00
573;DHT22;271;51.114;13.780;2023-04-15T10:25:41;8.10;1.00
573;DHT22;271;51.114;13.780;2023-04-15T10:28:37;8.10;1.00
573;DHT22;271;51.114;13.780;2023-04-15T10:31:31;8.10;1.00
573;DHT22;271;51.114;13.780;2023-04-15T10:34:26;8.10;1.00
573;DHT22;271;51.114;13.780;2023-04-15T10:37:20;8.20;1.00
573;DHT22;271;51.114;13.780;2023-04-15T10:40:28;8.20;1.00
573;DHT22;271;51.114;13.780;2023-04-15T10:43:29;8.30;1.00
573;DHT22;271;51.114;13.780;2023-04-15T10:46:34;8.50;1.00
573;DHT22;271;51.114;13.780;2023-04-15T10:49:24;8.60;1.00
573;DHT22;271;51.114;13.780;2023-04-15T10:52:14;8.50;1.00
573;DHT22;271;51.114;13.780;2023-04-15T10:55:12;8.60;1.00
573;DHT22;271;51.114;13.780;2023-04-15T10:58:05;8.50;1.00
573;DHT22;271;51.114;13.780;2023-04-15T11:01:05;8.50;1.00
573;DHT22;271;51.114;13.780;2023-04-15T11:04:02;8.70;1.00
573;DHT22;271;51.114;13.780;2023-04-15T11:07:05;8.70;1.00
573;DHT22;271;51.114;13.780;2023-04-15T11:10:03;8.70;1.00
573;DHT22;271;51.114;13.780;2023-04-15T11:12:56;8.70;1.00
573;DHT22;271;51.114;13.780;2023-04-15T11:15:48;8.80;1.00
573;DHT22;271;51.114;13.780;2023-04-15T11:18:37;8.90;1.00
573;DHT22;271;51.114;13.780;2023-04-15T11:21:27;8.90;1.00
573;DHT22;271;51.114;13.780;2023-04-15T11:24:23;8.80;1.00
573;DHT22;271;51.114;13.780;2023-04-15T11:27:23;8.90;1.00
573;DHT22;271;51.114;13.780;2023-04-15T11:30:21;9.00;1.00
573;DHT22;271;51.114;13.780;2023-04-15T11:33:13;9.00;1.00
573;DHT22;271;51.114;13.780;2023-04-15T11:36:01;9.10;1.00
573;DHT22;271;51.114;13.780;2023-04-15T11:38:51;9.10;1.00
573;DHT22;271;51.114;13.780;2023-04-15T11:41:41;9.20;1.00
573;DHT22;271;51.114;13.780;2023-04-15T11:44:30;9.20;1.00
573;DHT22;271;51.114;13.780;2023-04-15T11:47:22;9.30;1.00
573;DHT22;271;51.114;13.780;2023-04-15T11:50:15;9.20;1.00
573;DHT22;271;51.114;13.780;2023-04-15T11:53:04;9.30;1.00
573;DHT22;271;51.114;13.780;2023-04-15T11:55:54;9.30;1.00
573;DHT22;271;51.114;13.780;2023-04-15T11:58:46;9.30;1.00
573;DHT22;271;51.114;13.780;2023-04-15T12:01:37;9.40;1.00
573;DHT22;271;51.114;13.780;2023-04-15T12:04:30;9.60;1.00
573;DHT22;271;51.114;13.780;2023-04-15T12:07:18;9.50;1.00
573;DHT22;271;51.114;13.780;2023-04-15T12:10:09;9.40;1.00
573;DHT22;271;51.114;13.780;2023-04-15T12:12:58;9.30;1.00
573;DHT22;271;51.114;13.780;2023-04-15T12:15:49;9.20;1.00
573;DHT22;271;51.114;13.780;2023-04-15T12:18:41;9.40;1.00
573;DHT22;271;51.114;13.780;2023-04-15T12:21:38;9.70;1.00
573;DHT22;271;51.114;13.780;2023-04-15T12:24:38;9.80;1.00
573;DHT22;271;51.114;13.780;2023-04-15T12:27:41;9.70;1.00
573;DHT22;271;51.114;13.780;2023-04-15T12:30:47;9.80;1.00
573;DHT22;271;51.114;13.780;2023-04-15T12:33:49;9.70;1.00
573;DHT22;271;51.114;13.780;2023-04-15T12:36:59;9.60;1.00
573;DHT22;271;51.114;13.780;2023-04-15T12:39:48;9.50;1.00
573;DHT22;271;51.114;13.780;2023-04-15T12:42:36;9.50;1.00
573;DHT22;271;51.114;13.780;2023-04-15T12:45:26;9.60;1.00
573;DHT22;271;51.114;13.780;2023-04-15T12:48:48;9.60;1.00
573;DHT22;271;51.114;13.780;2023-04-15T12:51:36;9.60;1.00
573;DHT22;271;51.114;13.780;2023-04-15T12:54:31;9.70;1.00
573;DHT22;271;51.114;13.780;2023-04-15T12:57:38;9.70;1.00
573;DHT22;271;51.114;13.780;2023-04-15T13:00:28;9.80;1.00
573;DHT22;271;51.114;13.780;2023-04-15T13:03:18;9.70;1.00
573;DHT22;271;51.114;13.780;2023-04-15T13:06:10;9.80;1.00
573;DHT22;271;51.114;13.780;2023-04-15T13:09:05;9.60;1.00
573;DHT22;271;51.114;13.780;2023-04-15T13:11:53;9.70;1.00
573;DHT22;271;51.114;13.780;2023-04-15T13:14:55;9.70;1.00
573;DHT22;271;51.114;13.780;2023-04-15T13:17:52;9.90;1.00
573;DHT22;271;51.114;13.780;2023-04-15T13:20:42;10.10;1.00
573;DHT22;271;51.114;13.780;2023-04-15T13:23:35;10.20;1.00
573;DHT22;271;51.114;13.780;2023-04-15T13:26:23;10.10;1.00
573;DHT22;271;51.114;13.780;2023-04-15T13:29:14;10.00;1.00
573;DHT22;271;51.114;13.780;2023-04-15T13:32:05;10.00;1.00
573;DHT22;271;51.114;13.780;2023-04-15T13:34:56;10.00;1.00
573;DHT22;271;51.114;13.780;2023-04-15T13:37:48;10.10;1.00
573;DHT22;271;51.114;13.780;2023-04-15T13:40:55;10.20;1.00
573;DHT22;271;51.114;13.780;2023-04-15T13:43:51;10.20;1.00
573;DHT22;271;51.114;13.780;2023-04-15T13:46:42;10.50;1.00
573;DHT22;271;51.114;13.780;2023-04-15T13:49:35;10.70;1.00
573;DHT22;271;51.114;13.780;2023-04-15T13:52:25;10.80;1.00
573;DHT22;271;51.114;13.780;2023-04-15T13:55:13;11.10;1.00
573;DHT22;271;51.114;13.780;2023-04-15T13:58:04;11.20;1.00
573;DHT22;271;51.114;13.780;2023-04-15T14:00:52;11.30;1.00
573;DHT22;271;51.114;13.780;2023-04-15T14:03:40;11.30;1.00
573;DHT22;271;51.114;13.780;2023-04-15T14:06:29;11.20;1.00
573;DHT22;271;51.114;13.780;2023-04-15T14:09:17;11.10;1.00
573;DHT22;271;51.114;13.780;2023-04-15T14:12:07;11.20;1.00
573;DHT22;271;51.114;13.780;2023-04-15T14:14:56;11.20;1.00
573;DHT22;271;51.114;13.780;2023-04-15T14:17:44;11.40;1.00
573;DHT22;271;51.114;13.780;2023-04-15T14:20:32;11.50;1.00
573;DHT22;271;51.114;13.780;2023-04-15T14:23:20;11.50;1.00
573;DHT22;271;51.114;13.780;2023-04-15T14:26:08;11.50;1.00
573;DHT22;271;51.114;13.780;2023-04-15T14:28:56;11.50;1.00
573;DHT22;271;51.114;13.780;2023-04-15T14:31:45;11.50;1.00
573;DHT22;271;51.114;13.780;2023-04-15T14:34:34;11.50;1.00
573;DHT22;271;51.114;13.780;2023-04-15T14:37:21;11.50;1.00
573;DHT22;271;51.114;13.780;2023-04-15T14:40:09;11.30;1.00
573;DHT22;271;51.114;13.780;2023-04-15T14:42:57;11.30;1.00
573;DHT22;271;51.114;13.780;2023-04-15T14:45:46;11.20;1.00
573;DHT22;271;51.114;13.780;2023-04-15T14:48:35;11.10;1.00
573;DHT22;271;51.114;13.780;2023-04-15T14:51:23;11.30;1.00
573;DHT22;271;51.114;13.780;2023-04-15T14:54:11;11.30;1.00
573;DHT22;271;51.114;13.780;2023-04-15T14:57:02;11.30;1.00
573;DHT22;271;51.114;13.780;2023-04-15T14:59:50;11.30;1.00
573;DHT22;271;51.114;13.780;2023-04-15T15:02:42;11.40;1.00
573;DHT22;271;51.114;13.780;2023-04-15T15:05:31;11.50;1.00
573;DHT22;271;51.114;13.780;2023-04-15T15:08:18;11.60;1.00
573;DHT22;271;51.114;13.780;2023-04-15T15:11:06;11.50;1.00
573;DHT22;271;51.114;13.780;2023-04-15T15:13:54;11.50;1.00
573;DHT22;271;51.114;13.780;2023-04-15T15:16:42;11.40;1.00
573;DHT22;271;51.114;13.780;2023-04-15T15:19:32;11.40;1.00
573;DHT22;271;51.114;13.780;2023-04-15T15:22:21;11.50;1.00
573;DHT22;271;51.114;13.780;2023-04-15T15:25:10;11.50;1.00
573;DHT22;271;51.114;13.780;2023-04-15T15:27:57;11.50;1.00
573;DHT22;271;51.114;13.780;2023-04-15T15:30:45;11.60;1.00
573;DHT22;271;51.114;13.780;2023-04-15T15:33:33;11.60;1.00
573;DHT22;271;51.114;13.780;2023-04-15T15:36:27;11.50;1.00
573;DHT22;271;51.114;13.780;2023-04-15T15:39:18;11.40;1.00
573;DHT22;271;51.114;13.780;2023-04-15T15:42:05;11.50;1.00
573;DHT22;271;51.114;13.780;2023-04-15T15:44:54;11.40;1.00
573;DHT22;271;51.114;13.780;2023-04-15T15:47:41;11.30;1.00
573;DHT22;271;51.114;13.780;2023-04-15T15:50:29;11.40;1.00
573;DHT22;271;51.114;13.780;2023-04-15T15:53:19;11.40;1.00
573;DHT22;271;51.114;13.780;2023-04-15T15:56:11;11.40;1.00
573;DHT22;271;51.114;13.780;2023-04-15T15:58:58;11.40;1.00
573;DHT22;271;51.114;13.780;2023-04-15T16:01:46;11.30;1.00
573;DHT22;271;51.114;13.780;2023-04-15T16:04:37;11.30;1.00
573;DHT22;271;51.114;13.780;2023-04-15T16:07:25;11.20;1.00
573;DHT22;271;51.114;13.780;2023-04-15T16:10:13;11.10;1.00
573;DHT22;271;51.114;13.780;2023-04-15T16:13:03;11.00;1.00
573;DHT22;271;51.114;13.780;2023-04-15T16:15:51;11.10;1.00
573;DHT22;271;51.114;13.780;2023-04-15T16:18:38;11.00;1.00
573;DHT22;271;51.114;13.780;2023-04-15T16:21:30;11.00;1.00
573;DHT22;271;51.114;13.780;2023-04-15T16:24:18;11.10;1.00
573;DHT22;271;51.114;13.780;2023-04-15T16:27:08;11.10;1.00
573;DHT22;271;51.114;13.780;2023-04-15T16:30:03;11.10;1.00
573;DHT22;271;51.114;13.780;2023-04-15T16:32:51;11.00;1.00
573;DHT22;271;51.114;13.780;2023-04-15T16:35:39;11.10;1.00
573;DHT22;271;51.114;13.780;2023-04-15T16:38:26;10.90;1.00
573;DHT22;271;51.114;13.780;2023-04-15T16:41:14;10.90;1.00
573;DHT22;271;51.114;13.780;2023-04-15T16:44:04;10.90;1.00
573;DHT22;271;51.114;13.780;2023-04-15T16:46:55;10.80;1.00
573;DHT22;271;51.114;13.780;2023-04-15T16:49:42;10.80;1.00
573;DHT22;271;51.114;13.780;2023-04-15T16:52:30;10.80;1.00
573;DHT22;271;51.114;13.780;2023-04-15T16:55:18;10.70;1.00
573;DHT22;271;51.114;13.780;2023-04-15T16:58:06;10.70;1.00
573;DHT22;271;51.114;13.780;2023-04-15T17:00:57;10.70;1.00
573;DHT22;271;51.114;13.780;2023-04-15T17:03:46;10.70;1.00
573;DHT22;271;51.114;13.780;2023-04-15T17:06:34;10.60;1.00
573;DHT22;271;51.114;13.780;2023-04-15T17:09:22;10.60;1.00
573;DHT22;271;51.114;13.780;2023-04-15T17:12:13;10.60;1.00
573;DHT22;271;51.114;13.780;2023-04-15T17:15:00;10.60;1.00
573;DHT22;271;51.114;13.780;2023-04-15T17:17:48;10.50;1.00
573;DHT22;271;51.114;13.780;2023-04-15T17:20:38;10.50;1.00
573;DHT22;271;51.114;13.780;2023-04-15T17:23:26;10.50;1.00
573;DHT22;271;51.114;13.780;2023-04-15T17:26:13;10.40;1.00
573;DHT22;271;51.114;13.780;2023-04-15T17:29:02;10.40;1.00
573;DHT22;271;51.114;13.780;2023-04-15T17:31:50;10.30;1.00
573;DHT22;271;51.114;13.780;2023-04-15T17:37:21;10.20;1.00
573;DHT22;271;51.114;13.780;2023-04-15T17:40:09;10.20;1.00
573;DHT22;271;51.114;13.780;2023-04-15T17:42:57;10.10;1.00
573;DHT22;271;51.114;13.780;2023-04-15T17:45:45;10.10;1.00
573;DHT22;271;51.114;13.780;2023-04-15T17:48:33;10.10;1.00
573;DHT22;271;51.114;13.780;2023-04-15T17:51:21;10.00;1.00
573;DHT22;271;51.114;13.780;2023-04-15T17:54:10;10.00;1.00
573;DHT22;271;51.114;13.780;2023-04-15T17:56:57;9.90;1.00
573;DHT22;271;51.114;13.780;2023-04-15T17:59:47;9.90;1.00
573;DHT22;271;51.114;13.780;2023-04-15T18:02:35;9.90;1.00
573;DHT22;271;51.114;13.780;2023-04-15T18:05:23;9.80;1.00
573;DHT22;271;51.114;13.780;2023-04-15T18:08:10;9.80;1.00
573;DHT22;271;51.114;13.780;2023-04-15T18:11:02;9.70;1.00
573;DHT22;271;51.114;13.780;2023-04-15T18:13:51;9.70;1.00
573;DHT22;271;51.114;13.780;2023-04-15T18:16:39;9.60;1.00
573;DHT22;271;51.114;13.780;2023-04-15T18:19:28;9.60;1.00
573;DHT22;271;51.114;13.780;2023-04-15T18:22:19;9.50;1.00
573;DHT22;271;51.114;13.780;2023-04-15T18:25:07;9.50;1.00
573;DHT22;271;51.114;13.780;2023-04-15T18:27:56;9.50;1.00
573;DHT22;271;51.114;13.780;2023-04-15T18:30:44;9.50;1.00
573;DHT22;271;51.114;13.780;2023-04-15T18:33:32;9.40;1.00
573;DHT22;271;51.114;13.780;2023-04-15T18:36:20;9.40;1.00
573;DHT22;271;51.114;13.780;2023-04-15T18:39:09;9.40;1.00
573;DHT22;271;51.114;13.780;2023-04-15T18:41:57;9.30;1.00
573;DHT22;271;51.114;13.780;2023-04-15T18:44:46;9.30;1.00
573;DHT22;271;51.114;13.780;2023-04-15T18:47:34;9.30;1.00
573;DHT22;271;51.114;13.780;2023-04-15T18:50:23;9.20;1.00
573;DHT22;271;51.114;13.780;2023-04-15T18:53:11;9.10;1.00
573;DHT22;271;51.114;13.780;2023-04-15T18:55:58;9.10;1.00
573;DHT22;271;51.114;13.780;2023-04-15T18:58:48;9.10;1.00
573;DHT22;271;51.114;13.780;2023-04-15T19:01:37;9.00;1.00
573;DHT22;271;51.114;13.780;2023-04-15T19:04:25;9.00;1.00
573;DHT22;271;51.114;13.780;2023-04-15T19:07:13;9.00;1.00
573;DHT22;271;51.114;13.780;2023-04-15T19:10:02;8.90;1.00
573;DHT22;271;51.114;13.780;2023-04-15T19:12:49;8.90;1.00